Tiempo atmosférico en la estación meteorológica de Soria, Soria (1082 m.)



Fecha
DESCASC
Temp. máxima en grados centígrados (hora)
DESCASC
Temp. mínima en grados centígrados (hora)
DESCASC
Temp. media en grados centígrados
DESCASC
Racha de viento máxima en m/sg (hora)
DESCASC
Velocidad máxima media en intervalos de 10 minutos(hora)
DESCASC
Precipitaciones diarias en mm
DESCASC
Precipitaciones de 00:00 a 06:00 en mm
DESCASC
Precipitaciones de 06:00 a 12:00 en mm
DESCASC
Precipitaciones de 12:00 a 18:00 en mm
DESCASC
Precipitaciones de 18:00 a 24:00 en mm
DESCASC
21-12-2019 13.5 (15:40) 6.2 (21:30) 9.8 27.78 (17:50) 13.33 (17:40) 12.4 0 4.6 3.8 4
20-12-2019 10.8 (02:00) 5.2 (00:00) 8 20.83 (03:50) 10.28 (03:40) 34 17 5.8 7.8 3.4
19-12-2019 10.1 (23:20) 5.2 (00:00) 7.7 15 (23:20) 8.89 (23:20) 11.8 0 0.4 3.4 8
23-12-2019 10.1 (17:00) 3.4 (00:00) 6.8 13.61 (00:50) 8.06 (14:00) 0 0 0 0 0
17-01-2020 9.9 (14:30) 0.2 (00:00) 5 12.5 (13:20) 6.67 (13:20) 1 0.8 0.2 0 0
10-01-2020 8.3 (13:50) 1.8 (00:00) 5.1 11.94 (14:50) 5.56 (14:50) 0.2 0 0.2 0 0
16-01-2020 11.7 (15:20) 2.6 (00:00) 7.1 10.83 (16:30) 6.11 (15:40) 0 0 0 0 0
09-01-2020 11.8 (13:40) -1.6 (-00:0) 5.1 9.17 (14:20) 5.83 (14:20) 0 0 0 0 0
26-12-2019 14.5 (14:30) 1.7 (00:00) 8.1 9.17 (08:30) 4.44 (08:30) 0 0 0 0 0
24-12-2019 12.5 (15:30) 3.7 (23:59) 8.1 9.17 (00:30) 5.28 (09:30) 0 0 0 0 0
14-01-2020 6.1 (16:10) -1.5 (-00:0) 2.3 8.89 (10:20) 5.83 (10:20) 0 0 0 0 0
13-01-2020 9.2 (14:00) -4.7 (-00:0) 2.3 8.06 (14:00) 5 (14:00) 0 0 0 0 0
04-01-2020 11.4 (14:00) -2.2 (-00:0) 4.6 8.06 (12:40) 4.17 (12:40) 0 0 0 0 0
25-12-2019 19 (15:50) -0.2 (00:00) 9.4 6.39 (16:20) 3.61 (16:00) 0 0 0 0 0
15-01-2020 8 (15:30) -0.4 (00:00) 3.8 6.11 (15:50) 3.33 (15:40) 0 0 0 0 0
03-01-2020 7.7 (15:10) -2.1 (-00:0) 2.8 5.83 (14:10) 3.89 (14:10) 0 0 0 0 0
11-01-2020 10.8 (14:00) -2.2 (-00:0) 4.3 5.83 (16:10) 3.89 (16:10) 0 0 0 0 0
06-01-2020 15.3 (15:30) -3.6 (-00:0) 5.9 5.83 (16:00) 3.61 (15:50) 0 0 0 0 0
02-01-2020 15.5 (15:00) -3.7 (-00:0) 5.9 5.28 (15:30) 3.33 (15:30) 0 0 0 0 0
07-01-2020 16 (14:20) -3 (-00:0) 6.5 5.28 (15:10) 3.33 (15:40) 0 0 0 0 0
12-01-2020 11.8 (16:10) -5.7 (08:50) 3.1 4.72 (15:00) 3.06 (15:00) 0 0 0 0 0
05-01-2020 14.3 (12:20) -3.4 (-00:0) 5.5 4.72 (13:40) 2.78 (15:00) 0 0 0 0 0
08-01-2020 15.9 (15:20) 0.5 (00:00) 8.2 4.17 (16:10) 2.5 (13:20) 0 0 0 0 0
31-12-2019 17.3 (15:30) -0.9 (-00:0) 8.2 3.61 (15:30) 1.94 (16:20) 0 0 0 0 0
28-12-2019 20 (15:30) -3.2 (-00:0) 8.4 3.61 (08:50) 1.67 (09:00) 0 0 0 0 0
27-12-2019 17.8 (15:40) -3 (-00:0) 7.4 3.61 (21:20) 1.39 (21:20) 0 0 0 0 0
01-01-2020 16.1 (16:10) -3.7 (-00:0) 6.2 3.33 (16:20) 1.67 (16:20) 0 0 0 0 0
30-12-2019 17 (15:50) -1.5 (-00:0) 7.8 3.33 (13:40) 1.94 (13:40) 0 0 0 0 0
29-12-2019 19.2 (15:50) -2.8 (-00:0) 8.2 2.5 (18:40) 1.67 (18:40) 0 0 0 0 0
22-12-2019 -- (--) -- (--) -- -- (--) -- (--) -- 0 -- -- --

Gráficas

Temp. máximas Temp. mínimas Temp. medias Precipitaciones Rachas de viento máximas Velocidades máximas media en intervalos de 10 minutos

Datos horarios

Fecha y hora oficial Temperatura (ºC) Velocidad del viento (km/h) Dirección del viento Racha (km/h) Dirección de racha Precipitación (mm) Presión (hPa) Tendencia (hPa) Humedad (%)
2020-01-17 23:00:00 1.1 3 Oeste 12 Oeste 0 905.9 0 87
2020-01-17 22:00:00 2.2 8 Oeste 14 Oeste 0 906.3 0.7 85
2020-01-17 21:00:00 3 7 Oeste 19 Oeste 0 906.2 1.1 81
2020-01-17 20:00:00 3.9 10 Oeste 17 Oeste 0 905.9 1.2 76
2020-01-17 19:00:00 4.7 7 Oeste 23 Oeste 0 905.6 1.9 70
2020-01-17 18:00:00 5.8 13 Oeste 23 Oeste 0 905.1 1.6 65
2020-01-17 17:00:00 7 9 Oeste 35 Oeste 0 904.7 1.4 59
2020-01-17 16:00:00 7.6 13 Noroeste 34 Oeste 0 903.7 0.2 56
2020-01-17 15:00:00 9.1 14 Noroeste 39 Oeste 0 903.5 -0.2 50
2020-01-17 14:00:00 8.9 21 Oeste 45 Oeste 0 903.3 0 57
2020-01-17 13:00:00 8.2 20 Oeste 40 Oeste 0 903.5 1 66
2020-01-17 12:00:00 6.5 14 Noroeste 38 Oeste 0 903.7 1.7 74
2020-01-17 11:00:00 5.3 15 Oeste 32 Oeste 0 903.3 1.9 90
2020-01-17 10:00:00 5.1 17 Oeste 39 Oeste 0.2 902.5 1.6 92
2020-01-17 09:00:00 4.4 17 Oeste 31 Oeste 0 902 1.2 95
2020-01-17 08:00:00 3.9 10 Oeste 19 Oeste 0 901.4 0.7 95
2020-01-17 07:00:00 4 8 Sur 13 Sur 0 900.9 0.3 93
2020-01-17 06:00:00 4.5 5 Sur 9 Sur 0 900.8 0.5 92
2020-01-17 05:00:00 4.3 4 Este 14 Este 0 900.7 0.1 95
2020-01-17 04:00:00 4.4 3 Oeste 13 Sudoeste 0 900.6 -0.5 93
2020-01-17 03:00:00 4.6 7 Sudoeste 13 Oeste 0 900.3 -0.8 93
2020-01-17 02:00:00 4.9 7 Sudoeste 13 Oeste 0.6 900.6 0.2 92
2020-01-17 01:00:00 5.3 5 Oeste 9 Oeste 0.2 901.1 0.6 91
2020-01-17 00:00:00 5.2 7 Oeste 13 Oeste 0 901.1 0.7 92
2020-01-16 23:00:00 4.8 6 Sur 12 Sudoeste 0 900.4 0.1 93
2020-01-16 22:00:00 5.2 5 Sudoeste 16 Sur 0 900.5 0.7 89
2020-01-16 21:00:00 5.4 5 Sudoeste 21 Sudoeste 0 900.4 1 86
2020-01-16 20:00:00 6.3 13 Sudoeste 25 Sudoeste 0 900.3 0.7 82
2020-01-16 19:00:00 6.3 12 Sudoeste 28 Sudoeste 0 899.8 0.3 78
2020-01-16 18:00:00 7.5 14 Sur 30 Sudoeste 0 899.4 -0.1 79
2020-01-16 17:00:00 9.3 14 Sudoeste 39 Sudoeste 0 899.6 -0.9 77
2020-01-16 16:00:00 10.9 19 Sudoeste 36 Sudoeste 0 899.5 -1.9 70
2020-01-16 15:00:00 11.2 18 Sudoeste 35 Sudoeste 0 899.5 -2.4 72
2020-01-16 14:00:00 10.2 18 Sudoeste 32 Sudoeste 0 900.5 -1.5 79
2020-01-16 13:00:00 8.2 13 Sudoeste 23 Sudoeste 0 901.4 -0.7 88
2020-01-16 12:00:00 7.3 10 Sudoeste 23 Sudoeste 0 901.9 0 93
2020-01-16 11:00:00 6.4 9 Sudoeste 22 Sudoeste 0 902 0.2 96
2020-01-16 10:00:00 5.6 5 Sudoeste 15 Sudoeste 0 902.1 0.7 100
2020-01-16 09:00:00 4.2 3 Oeste 6 Sudoeste 0 901.9 0.5 100
2020-01-16 08:00:00 3.4 3 Noroeste 5 Noroeste 0 901.8 0.4 100
2020-01-16 07:00:00 3.2 0 Calma 4 Sudeste 0 901.4 -0.2 100
2020-01-16 06:00:00 3 3 Sur 13 Sudoeste 0 901.4 -0.3 100
2020-01-16 05:00:00 2.6 7 Sur 14 Sur 0 901.4 -0.3 100
2020-01-16 04:00:00 3 7 Sudoeste 12 Oeste 0 901.6 -0.3 99
2020-01-16 03:00:00 2.9 7 Sudoeste 13 Sur 0 901.7 -0.3 98
2020-01-16 02:00:00 3.3 8 Oeste 16 Oeste 0 901.7 -0.1 99
2020-01-16 01:00:00 3.1 5 Sudoeste 18 Sur 0 901.9 0.3 97
2020-01-16 00:00:00 3.3 5 Sudoeste 16 Sur 0 902 0.6 96
2020-01-15 23:00:00 3.9 7 Sudoeste 14 Sudoeste 0 901.8 0.6 94
2020-01-15 22:00:00 3.7 8 Sudoeste 17 Sudoeste 0 901.6 0.7 93
2020-01-15 21:00:00 3.7 5 Sudoeste 13 Sudoeste 0 901.4 1.3 93
2020-01-15 20:00:00 4.2 8 Sudoeste 17 Sudoeste 0 901.2 1.7 90
2020-01-15 19:00:00 5.2 5 Sudoeste 15 Sudoeste 0 900.9 1.6 88
2020-01-15 18:00:00 6.1 8 Sudoeste 15 Sudoeste 0 900.1 1.3 86
2020-01-15 17:00:00 6.5 9 Sudoeste 19 Sudoeste 0 899.5 0.4 81
2020-01-15 16:00:00 7.3 9 Sudoeste 22 Sudoeste 0 899.3 0 80
2020-01-15 15:00:00 7.4 8 Sudoeste 17 Sur 0 898.8 -0.8 78
2020-01-15 14:00:00 7.1 8 Sudoeste 15 Sudoeste 0 899.1 0.1 79
2020-01-15 13:00:00 6.1 9 Sudoeste 17 Sudoeste 0 899.3 1.2 82
2020-01-15 12:00:00 4.4 5 Sudeste 10 Sudeste 0 899.6 2 89
2020-01-15 11:00:00 3.7 6 Sudoeste 12 Sudoeste 0 899 1.9 90
2020-01-15 10:00:00 2.6 4 Oeste 10 Sudoeste 0 898.1 1.6 94
2020-01-15 09:00:00 2 3 Sudoeste 10 Sudoeste 0 897.6 1.4 94
2020-01-15 08:00:00 2.4 5 Sudoeste 16 Sudoeste 0 897.1 0.8 93
2020-01-15 07:00:00 2.6 4 Sudoeste 18 Sudoeste 0 896.5 -0.2 95
2020-01-15 06:00:00 2.4 10 Sudoeste 17 Sudoeste 0 896.2 -0.2 95
2020-01-15 05:00:00 1 5 Sudoeste 9 Sudoeste 0 896.3 0.1 96
2020-01-15 04:00:00 0.3 6 Sudoeste 10 Sudoeste 0 896.7 0.2 94
2020-01-15 03:00:00 0.3 8 Sudoeste 14 Sudoeste 0 896.4 -0.1 93
2020-01-15 02:00:00 0 8 Sudoeste 14 Sudoeste 0 896.2 -0.5 92
2020-01-15 01:00:00 -0.2 7 Sudoeste 13 Sudoeste 0 896.5 0.1 90
2020-01-15 00:00:00 0.1 8 Sudoeste 15 Sudoeste 0 896.5 -0.2 90
2020-01-14 23:00:00 0.2 9 Sudoeste 16 Sudoeste 0 896.7 0 89
2020-01-14 22:00:00 0.5 12 Sudoeste 17 Sudoeste 0 896.4 0 86
2020-01-14 21:00:00 1 6 Sudoeste 16 Sudoeste 0 896.7 0.8 84
2020-01-14 20:00:00 1.9 7 Sudoeste 11 Sudoeste 0 896.7 0.6 83
2020-01-14 19:00:00 3.2 5 Sudoeste 10 Sudoeste 0 896.4 0.3 78
2020-01-14 18:00:00 4.9 5 Sudoeste 21 Oeste 0 895.9 -0.2 71
2020-01-14 17:00:00 5.8 11 Oeste 28 Oeste 0 896.1 -0.6 66
2020-01-14 16:00:00 5.9 16 Oeste 29 Oeste 0 896.1 -1.2 66
2020-01-14 15:00:00 4.7 14 Oeste 29 Sudoeste 0 896.1 -1.6 73
2020-01-14 14:00:00 5.2 15 Sudoeste 27 Sudoeste 0 896.7 -1.1 70
2020-01-14 13:00:00 4.3 17 Sudoeste 28 Oeste 0 897.3 0 71
2020-01-14 12:00:00 3.2 18 Oeste 30 Oeste 0 897.7 1.1 77
2020-01-14 11:00:00 0.4 18 Oeste 32 Oeste 0 897.8 1.2 90
2020-01-14 10:00:00 0.2 13 Sudoeste 21 Sudoeste 0 897.3 1.1 89
2020-01-14 09:00:00 -1.5 10 Sudoeste 20 Sudoeste 0 896.6 0.5 94
2020-01-14 08:00:00 -1.3 10 Sudoeste 21 Sudoeste 0 896.6 0.4 93
2020-01-14 07:00:00 -1.1 10 Sudoeste 18 Sudoeste 0 896.2 -0.4 93
2020-01-14 06:00:00 -1.1 11 Sudoeste 18 Sudoeste 0 896.1 -0.5 91
2020-01-14 05:00:00 -0.8 10 Oeste 14 Sudoeste 0 896.2 -0.6 89
2020-01-14 04:00:00 -0.5 8 Sudoeste 18 Oeste 0 896.6 -0.8 83
2020-01-14 03:00:00 0.4 8 Sudoeste 15 Oeste 0 896.6 -0.8 81
2020-01-14 02:00:00 -0.2 7 Oeste 19 Oeste 0 896.8 -0.4 78
2020-01-14 01:00:00 0.2 12 Oeste 19 Oeste 0 897.4 0.4 78
2020-01-14 00:00:00 0.3 12 Oeste 21 Oeste 0 897.4 0.1 83
2020-01-13 23:00:00 -0.6 7 Sudoeste 13 Sudoeste 0 897.2 -0.3 86
2020-01-13 22:00:00 0 3 Oeste 9 Sudoeste 0 897 -0.6 81
2020-01-13 21:00:00 0.9 3 Sudoeste 9 Sudoeste 0 897.3 -0.2 78
2020-01-13 20:00:00 2.1 6 Sudoeste 10 Oeste 0 897.5 -0.1 72
2020-01-13 19:00:00 3.6 5 Sudoeste 15 Oeste 0 897.6 -0.2 63
2020-01-13 18:00:00 5.4 6 Sudoeste 27 Oeste 0 897.5 -0.1 55
2020-01-13 17:00:00 7.9 18 Oeste 29 Sudoeste 0 897.6 -0.6 38
2020-01-13 16:00:00 8.1 15 Oeste 28 Oeste 0 897.8 -1.3 38
2020-01-13 15:00:00 8.3 14 Oeste 28 Oeste 0 897.6 -2.4 38
2020-01-13 14:00:00 9.1 18 Oeste 29 Oeste 0 898.2 -1.8 37
2020-01-13 13:00:00 6.7 10 Sur 16 Sur 0 899.1 -1 60
2020-01-13 12:00:00 3.5 3 Sudeste 6 Sur 0 900 0.1 77
2020-01-13 11:00:00 0.9 0 Calma 5 Sur 0 900 -0.2 80
2020-01-13 10:00:00 -2.1 0 Calma 5 Noroeste 0 900.1 -0.2 93
2020-01-13 09:00:00 -4.3 2 Noroeste 6 Noroeste 0 899.9 -0.6 93
2020-01-13 08:00:00 -4.6 2 Norte 3 Norte 0 900.2 -1 92
2020-01-13 07:00:00 -4.6 0 Calma 4 Norte 0 900.3 -1.3 90
2020-01-13 06:00:00 -3.5 2 Norte 4 Noroeste 0 900.5 -1.6 88
2020-01-13 05:00:00 -3.5 2 Noroeste 6 Noroeste 0 901.2 -1.2 90
2020-01-13 04:00:00 -3.1 2 Norte 3 Norte 0 901.6 -1.5 92
2020-01-13 03:00:00 -2.4 2 Norte 5 Norte 0 902.1 -1.4 91
2020-01-13 02:00:00 -1.8 3 Norte 5 Norte 0 902.4 -1.3 85
2020-01-13 01:00:00 -1.5 2 Norte 4 Norte 0 903.1 -0.7 84
2020-01-13 00:00:00 -1.1 3 Noroeste 7 Nordeste 0 903.5 -0.5 79
2020-01-12 23:00:00 0 2 Noroeste 4 Nordeste 0 903.7 -0.3 85
2020-01-12 22:00:00 1.2 2 Oeste 5 Oeste 0 903.8 0.2 82
2020-01-12 21:00:00 2.1 2 Oeste 5 Noroeste 0 904 0.9 80
2020-01-12 20:00:00 3.6 3 Noroeste 9 Oeste 0 904 0.9 75
2020-01-12 19:00:00 5.3 6 Sudoeste 14 Oeste 0 903.6 0.5 69
2020-01-12 18:00:00 7.5 8 Sudoeste 14 Sudoeste 0 903.1 -0.1 61
2020-01-12 17:00:00 11 7 Sudoeste 17 Oeste 0 903.1 -0.7 46
2020-01-12 16:00:00 11.6 9 Sudoeste 17 Oeste 0 903.1 -1.5 42
2020-01-12 15:00:00 11.5 11 Oeste 17 Oeste 0 903.2 -2.2 40
2020-01-12 14:00:00 10.1 8 Oeste 14 Sudoeste 0 903.8 -1.8 41
2020-01-12 13:00:00 7.6 5 Oeste 10 Oeste 0 904.6 -0.4 58
2020-01-12 12:00:00 4 3 Noroeste 11 Oeste 0 905.4 0.8 66
2020-01-12 11:00:00 0.3 7 Oeste 11 Oeste 0 905.6 1 80
2020-01-12 10:00:00 -2.8 3 Noroeste 10 Noroeste 0 905 0.3 93
2020-01-12 09:00:00 -5.6 2 Noroeste 5 Noroeste 0 904.6 0.3 92
2020-01-12 08:00:00 -5 4 Norte 9 Nordeste 0 904.6 0.2 94
2020-01-12 07:00:00 -4.6 5 Norte 9 Nordeste 0 904.7 0.1 94
2020-01-12 06:00:00 -4.1 6 Norte 11 Norte 0 904.3 -0.4 94
2020-01-12 05:00:00 -3.9 4 Norte 11 Nordeste 0 904.4 -0.3 92
2020-01-12 04:00:00 -4 2 Noroeste 9 Norte 0 904.6 -0.2 91
2020-01-12 03:00:00 -4 0 Calma 5 Noroeste 0 904.7 -0.2 89
2020-01-12 02:00:00 -3.7 0 Calma 4 Norte 0 904.7 -0.3 85
2020-01-12 01:00:00 -2.9 0 Calma 3 Oeste 0 904.8 0.1 83
2020-01-12 00:00:00 -1.9 2 Oeste 4 Oeste 0 904.9 0.1 81
2020-01-11 23:00:00 -0.9 4 Sur 6 Sudoeste 0 905 0.5 78
2020-01-11 22:00:00 0.7 3 Noroeste 11 Oeste 0 904.7 0.6 73
2020-01-11 21:00:00 1.8 6 Oeste 11 Oeste 0 904.8 1 69
2020-01-11 20:00:00 2.7 6 Oeste 12 Sudoeste 0 904.5 0.7 64
2020-01-11 19:00:00 4.1 7 Sudoeste 18 Oeste 0 904.1 0.2 52
2020-01-11 18:00:00 6.5 11 Oeste 19 Oeste 0 903.8 -0.2 42
2020-01-11 17:00:00 9.3 9 Sudoeste 21 Sudoeste 0 903.8 -0.5 33
2020-01-11 16:00:00 10.4 13 Sudoeste 20 Sudoeste 0 903.9 -1.3 34
2020-01-11 15:00:00 10.7 11 Sudoeste 21 Oeste 0 904 -2.2 34
2020-01-11 14:00:00 10.8 6 Oeste 13 Sudoeste 0 904.3 -2 37
2020-01-11 13:00:00 9 6 Sudoeste 10 Sudoeste 0 905.2 -0.8 39
2020-01-11 12:00:00 7.1 5 Oeste 10 Oeste 0 906.2 0.5 48
2020-01-11 11:00:00 5.2 2 Noroeste 8 Norte 0 906.3 0.9 51
2020-01-11 10:00:00 0.9 3 Norte 10 Norte 0 906 0.6 72
2020-01-11 09:00:00 -1.8 5 Norte 10 Norte 0 905.7 0.8 82
2020-01-11 08:00:00 -1.7 3 Norte 9 Nordeste 0 905.4 0.2 77
2020-01-11 07:00:00 -0.9 2 Este 7 Sudoeste 0 905.4 -0.1 72
2020-01-11 06:00:00 0.9 6 Norte 18 Norte 0 904.9 -0.7 66
2020-01-11 05:00:00 0.6 5 Este 17 Nordeste 0 905.2 -0.1 69
2020-01-11 04:00:00 0.3 5 Norte 14 Norte 0 905.5 0 74
2020-01-11 03:00:00 0.6 6 Norte 15 Norte 0 905.6 -0.2 77
2020-01-11 02:00:00 1.2 5 Nordeste 12 Norte 0 905.3 -0.4 75
2020-01-11 01:00:00 1.8 4 Noroeste 21 Nordeste 0 905.5 0.1 76
2020-01-11 00:00:00 2 5 Nordeste 12 Este 0 905.8 0.4 76
2020-01-10 23:00:00 2.4 5 Norte 19 Nordeste 0 905.7 0.7 76
2020-01-10 22:00:00 3.1 7 Norte 25 Nordeste 0 905.4 0.8 76
2020-01-10 21:00:00 3.3 4 Noroeste 15 Nordeste 0 905.4 1.2 76
2020-01-10 20:00:00 3.1 6 Norte 19 Norte 0 905 1.2 75
2020-01-10 19:00:00 3.7 6 Norte 19 Norte 0 904.6 1.1 74
2020-01-10 18:00:00 4.9 10 Norte 35 Nordeste 0 904.2 1.1 70
2020-01-10 17:00:00 6.1 9 Norte 35 Nordeste 0 903.8 0.9 63
2020-01-10 16:00:00 6.5 15 Nordeste 36 Nordeste 0 903.5 0.4 61
2020-01-10 15:00:00 7.3 17 Norte 43 Nordeste 0 903.1 -0.6 58
2020-01-10 14:00:00 8 13 Nordeste 31 Nordeste 0 902.9 -0.5 53
2020-01-10 13:00:00 7.5 11 Norte 32 Nordeste 0 903.1 0.5 55
2020-01-10 12:00:00 7.1 7 Norte 17 Norte 0 903.7 1 57
2020-01-10 11:00:00 5.7 7 Norte 19 Noroeste 0 903.4 0.9 61
2020-01-10 10:00:00 4.4 6 Norte 21 Norte 0 902.6 0.6 69
2020-01-10 09:00:00 2.3 5 Norte 19 Nordeste 0.2 902.7 1.6 89
2020-01-10 08:00:00 2.9 4 Noroeste 15 Norte 0 902.5 1.4 85
2020-01-10 07:00:00 3.4 6 Norte 24 Norte 0 902 0.7 75
2020-01-10 06:00:00 2.9 5 Norte 20 Norte 0 901.1 0.5 74
2020-01-10 05:00:00 3.2 6 Norte 17 Noroeste 0 901.1 1.2 77
2020-01-10 04:00:00 3.4 3 Norte 12 Norte 0 901.3 1.2 91
2020-01-10 03:00:00 3.1 6 Nordeste 20 Oeste 0 900.6 0.6 88
2020-01-10 02:00:00 4.6 13 Oeste 19 Oeste 0 899.9 0.2 82
2020-01-10 01:00:00 5.8 8 Noroeste 25 Noroeste 0 900.1 0.6 81
2020-01-10 00:00:00 6.6 10 Noroeste 32 Noroeste 0 900 0.3 86
2020-01-09 23:00:00 7.5 7 Oeste 19 Sudoeste 0 899.7 -0.4 90
2020-01-09 22:00:00 7.4 7 Sudoeste 21 Oeste 0 899.5 -0.7 91
2020-01-09 21:00:00 7.4 13 Oeste 21 Oeste 0 899.7 0.2 91
2020-01-09 20:00:00 7.4 5 Sudoeste 13 Oeste 0 900.1 0.7 88
2020-01-09 19:00:00 7.7 4 Norte 18 Oeste 0 900.2 0.3 86
2020-01-09 18:00:00 7.9 8 Oeste 17 Sudoeste 0 899.5 -0.2 86
2020-01-09 17:00:00 8.4 9 Oeste 23 Sudoeste 0 899.4 -0.5 85
2020-01-09 16:00:00 8.2 14 Oeste 31 Sudoeste 0 899.9 -1.1 87
2020-01-09 15:00:00 10 18 Oeste 33 Oeste 0 899.7 -1.9 73
2020-01-09 14:00:00 11.8 17 Oeste 30 Oeste 0 899.9 -2.3 60
2020-01-09 13:00:00 11.4 16 Oeste 25 Oeste 0 901 -1.1 55
2020-01-09 12:00:00 8.5 4 Sudeste 8 Sudeste 0 901.6 -0.1 69
2020-01-09 11:00:00 4.5 3 Sudeste 6 Sur 0 902.2 0.2 86
2020-01-09 10:00:00 1.5 2 Norte 6 Sudeste 0 902.1 0 93
2020-01-09 09:00:00 -1.6 0 Calma 3 Sudeste 0 901.7 -0.4 96
2020-01-09 08:00:00 -1.3 0 Calma 3 Noroeste 0 902 -0.3 95
2020-01-09 07:00:00 -0.9 2 Norte 4 Norte 0 902.1 -0.7 96
2020-01-09 06:00:00 -0.3 0 Calma 4 Noroeste 0 902.1 -1.1 95
2020-01-09 05:00:00 -0.1 0 Calma 3 Noroeste 0 902.3 -1 95
2020-01-09 04:00:00 0.6 2 Norte 3 Noroeste 0 902.8 -1 95
2020-01-09 03:00:00 0.7 2 Sudeste 4 Este 0 903.2 -0.9 94
2020-01-09 02:00:00 1.1 0 Calma 4 Este 0 903.3 -1 94
2020-01-09 01:00:00 1.9 3 Este 5 Este 0 903.8 -0.5 92
2020-01-09 00:00:00 2.7 0 Calma 4 Noroeste 0 904.1 -0.4 92
2020-01-08 23:00:00 3.4 0 Calma 3 Sudeste 0 904.3 -0.2 91
2020-01-08 22:00:00 4.3 4 Norte 5 Norte 0 904.3 -0.1 86
2020-01-08 21:00:00 5.5 0 Calma 6 Nordeste 0 904.5 0.5 79
2020-01-08 20:00:00 7.2 0 Calma 7 Sur 0 904.5 0.7 74
2020-01-08 19:00:00 8.9 0 Calma 8 Nordeste 0 904.4 0.7 71
2020-01-08 18:00:00 10.9 6 Sur 12 Sur 0 904 0.2 66
2020-01-08 17:00:00 13.9 7 Sur 15 Sudeste 0 903.8 -0.3 56
2020-01-08 16:00:00 15.7 7 Sudeste 11 Sudeste 0 903.7 -1 50
2020-01-08 15:00:00 15.6 5 Sudeste 13 Sudeste 0 903.8 -1.5 52
2020-01-08 14:00:00 14.6 6 Sur 14 Sur 0 904.1 -1.5 53
2020-01-08 13:00:00 12.7 8 Sur 14 Sur 0 904.7 -0.6 52
2020-01-08 12:00:00 11.5 5 Sur 9 Sur 0 905.3 0.8 54
2020-01-08 11:00:00 7.6 2 Sudoeste 8 Sur 0 905.6 1.5 62
2020-01-08 10:00:00 5 3 Sudeste 8 Sur 0 905.3 1.1 66
2020-01-08 09:00:00 1 2 Sudoeste 5 Noroeste 0 904.5 0.3 77
2020-01-08 08:00:00 1.4 2 Noroeste 7 Oeste 0 904.1 -0.2 76
2020-01-08 07:00:00 0.9 3 Sudoeste 8 Este 0 904.2 -0.6 78
2020-01-08 06:00:00 1.3 2 Noroeste 8 Este 0 904.2 -0.9 76
2020-01-08 05:00:00 1.6 3 Oeste 9 Oeste 0 904.3 -0.9 74
2020-01-08 04:00:00 2 5 Norte 12 Norte 0 904.8 -0.8 75
2020-01-08 03:00:00 0.9 2 Norte 5 Noroeste 0 905.1 -0.8 78
2020-01-08 02:00:00 0.7 2 Norte 6 Norte 0 905.2 -0.7 79
2020-01-08 01:00:00 1.4 3 Noroeste 9 Noroeste 0 905.6 -0.2 77
2020-01-08 00:00:00 1.9 0 Calma 6 Noroeste 0 905.9 0.4 74
2020-01-07 23:00:00 2.7 3 Noroeste 5 Sudoeste 0 905.9 0.5 71
2020-01-07 22:00:00 3.9 5 Noroeste 10 Norte 0 905.8 0.5 68
2020-01-07 21:00:00 4.5 3 Sudeste 6 Oeste 0 905.5 0.3 63
2020-01-07 20:00:00 6.5 6 Oeste 10 Oeste 0 905.4 0.4 57
2020-01-07 19:00:00 8 5 Noroeste 12 Oeste 0 905.3 0.3 52
2020-01-07 18:00:00 10.3 5 Oeste 16 Oeste 0 905.2 0.2 46
2020-01-07 17:00:00 13.6 10 Oeste 16 Oeste 0 905 -0.3 36
2020-01-07 16:00:00 15.7 8 Sudoeste 19 Sudoeste 0 905 -1.4 28
2020-01-07 15:00:00 14.7 9 Sudoeste 15 Oeste 0 905 -2 37
2020-01-07 14:00:00 15.4 6 Oeste 10 Oeste 0 905.3 -1.8 34
2020-01-07 13:00:00 12.7 3 Noroeste 11 Oeste 0 906.4 -0.7 39
2020-01-07 12:00:00 9.9 7 Oeste 12 Oeste 0 907 0.6 40
2020-01-07 11:00:00 6.6 2 Norte 8 Noroeste 0 907.1 1.2 53
2020-01-07 10:00:00 2 3 Norte 8 Noroeste 0 907.1 1.4 69
2020-01-07 09:00:00 -2.6 0 Calma 6 Oeste 0 906.4 0.8 87
2020-01-07 08:00:00 -2.7 2 Oeste 6 Este 0 905.9 0.3 87
2020-01-07 07:00:00 -2.8 0 Calma 5 Nordeste 0 905.7 -0.5 87
2020-01-07 06:00:00 -2 0 Calma 8 Norte 0 905.6 -0.4 81
2020-01-07 05:00:00 -2 2 Noroeste 5 Sudeste 0 905.6 -0.6 84
2020-01-07 04:00:00 -1.7 2 Noroeste 5 Norte 0 906.2 0.2 83
2020-01-07 03:00:00 -1.1 0 Calma 4 Oeste 0 906 0.1 79
2020-01-07 02:00:00 -0.3 0 Calma 8 Norte 0 906.2 0.3 77
2020-01-07 01:00:00 0.1 4 Norte 6 Norte 0 906 0.4 74
2020-01-07 00:00:00 1.1 5 Norte 10 Norte 0 905.9 0.6 68
2020-01-06 23:00:00 2.6 4 Norte 9 Norte 0 905.9 1 60
2020-01-06 22:00:00 3 3 Nordeste 8 Noroeste 0 905.6 1.4 56
2020-01-06 21:00:00 3.8 4 Norte 7 Noroeste 0 905.3 1.8 51
2020-01-06 20:00:00 5.3 3 Noroeste 8 Oeste 0 904.9 1.9 46
2020-01-06 19:00:00 7.5 3 Oeste 15 Oeste 0 904.2 1.3 41
2020-01-06 18:00:00 9.8 10 Oeste 17 Oeste 0 903.5 1.1 37
2020-01-06 17:00:00 13 9 Sudoeste 19 Sudoeste 0 903 0.1 30
2020-01-06 16:00:00 15 12 Oeste 21 Oeste 0 902.9 -0.8 25
2020-01-06 15:00:00 15.1 9 Oeste 17 Sudoeste 0 902.4 -1.9 30
2020-01-06 14:00:00 14.1 8 Sudoeste 14 Sudoeste 0 902.9 -1.5 35
2020-01-06 13:00:00 12.2 4 Sudeste 7 Sudeste 0 903.7 -0.4 46
2020-01-06 12:00:00 8.9 3 Sudeste 7 Sur 0 904.3 0.3 55
2020-01-06 11:00:00 4.5 2 Sudoeste 3 Sudoeste 0 904.4 1.1 64
2020-01-06 10:00:00 0.7 2 Sudeste 4 Nordeste 0 904.1 1.2 81